Time,TemperatureF,DewpointF,PressureIn,WindDirection,WindDirectionDegrees,WindSpeedMPH,WindSpeedGustMPH,Humidity,HourlyPrecipIn,Conditions,Clouds,dailyrainin,SoftwareType,DateUTC
2013-04-09 00:00:00,41.0,39.2,29.88,ENE,68,10.5,10.5,93,0.00,,,0.00,WUHU216HW,2013-04-09 05:00:00,
2013-04-09 00:05:00,40.9,39.0,29.88,NE,45,6.7,10.5,93,0.00,,,0.00,WUHU216HW,2013-04-09 05:05:00,
2013-04-09 00:10:00,40.7,38.8,29.89,ENE,68,9.2,10.5,93,0.00,,,0.00,WUHU216HW,2013-04-09 05:10:00,
2013-04-09 00:15:00,40.5,38.6,29.89,NE,45,8.3,9.4,93,0.00,,,0.00,WUHU216HW,2013-04-09 05:15:00,
2013-04-09 00:20:00,40.5,38.6,29.89,NNE,23,6.7,9.2,93,0.00,,,0.00,WUHU216HW,2013-04-09 05:20:00,
2013-04-09 00:25:00,40.5,38.6,29.88,NE,45,9.2,9.6,93,0.00,,,0.00,WUHU216HW,2013-04-09 05:25:00,
2013-04-09 00:30:00,40.5,38.6,29.88,NE,45,6.9,9.6,93,0.00,,,0.00,WUHU216HW,2013-04-09 05:30:00,
2013-04-09 00:35:00,40.3,38.4,29.88,NE,45,7.6,10.3,93,0.00,,,0.00,WUHU216HW,2013-04-09 05:35:00,
2013-04-09 00:40:00,40.3,38.4,29.88,NNE,23,6.5,10.3,93,0.00,,,0.00,WUHU216HW,2013-04-09 05:40:00,
2013-04-09 00:45:00,40.1,38.3,29.88,NE,45,7.8,9.4,93,0.00,,,0.00,WUHU216HW,2013-04-09 05:45:00,
2013-04-09 00:50:00,40.0,38.1,29.88,NE,45,6.3,9.4,93,0.00,,,0.00,WUHU216HW,2013-04-09 05:50:00,
2013-04-09 00:55:00,40.0,38.1,29.88,NE,45,8.5,10.7,93,0.00,,,0.00,WUHU216HW,2013-04-09 05:55:00,
2013-04-09 01:00:00,39.8,37.9,29.88,ENE,68,11.2,11.2,93,0.00,,,0.00,WUHU216HW,2013-04-09 06:00:00,
2013-04-09 01:05:00,39.6,37.7,29.88,NE,45,9.2,13.2,93,0.00,,,0.00,WUHU216HW,2013-04-09 06:05:00,
2013-04-09 01:10:00,39.6,37.7,29.88,NE,45,6.9,13.2,93,0.00,,,0.00,WUHU216HW,2013-04-09 06:10:00,
2013-04-09 01:15:00,39.4,37.5,29.88,NNE,23,10.1,14.1,93,0.00,,,0.00,WUHU216HW,2013-04-09 06:15:00,
2013-04-09 01:20:00,39.4,37.5,29.88,ENE,68,6.9,14.1,93,0.00,,,0.00,WUHU216HW,2013-04-09 06:20:00,
2013-04-09 01:25:00,39.4,37.3,29.88,NE,45,7.6,11.9,92,0.00,,,0.00,WUHU216HW,2013-04-09 06:25:00,
2013-04-09 01:30:00,39.2,37.1,29.88,NE,45,6.5,10.3,92,0.00,,,0.00,WUHU216HW,2013-04-09 06:30:00,
2013-04-09 01:35:00,39.2,37.1,29.88,ENE,68,11.4,11.4,92,0.00,,,0.00,WUHU216HW,2013-04-09 06:35:00,
2013-04-09 01:40:00,39.1,36.9,29.88,NE,45,5.6,11.4,92,0.00,,,0.00,WUHU216HW,2013-04-09 06:40:00,
2013-04-09 01:45:00,39.1,36.9,29.88,NNE,23,9.2,11.4,92,0.00,,,0.00,WUHU216HW,2013-04-09 06:45:00,
2013-04-09 01:50:00,38.7,36.0,29.87,NNE,23,12.3,12.3,90,0.00,,,0.00,WUHU216HW,2013-04-09 06:50:00,
2013-04-09 01:55:00,38.5,36.1,29.87,NE,45,6.3,13.6,91,0.00,,,0.00,WUHU216HW,2013-04-09 06:55:00,
2013-04-09 02:00:00,38.5,36.1,29.87,NE,45,13.0,13.9,91,0.00,,,0.00,WUHU216HW,2013-04-09 07:00:00,
2013-04-09 02:05:00,38.3,36.2,29.86,NNE,23,7.4,13.9,92,0.00,,,0.00,WUHU216HW,2013-04-09 07:05:00,
2013-04-09 02:10:00,38.3,36.2,29.86,ENE,68,10.3,13.9,92,0.00,,,0.00,WUHU216HW,2013-04-09 07:10:00,
2013-04-09 02:15:00,38.3,36.2,29.86,NE,45,11.0,12.8,92,0.00,,,0.00,WUHU216HW,2013-04-09 07:15:00,
2013-04-09 02:20:00,38.3,36.2,29.86,ENE,68,6.9,13.4,92,0.00,,,0.00,WUHU216HW,2013-04-09 07:20:00,
2013-04-09 02:25:00,38.2,36.0,29.86,NNE,23,8.3,13.4,92,0.00,,,0.00,WUHU216HW,2013-04-09 07:25:00,
2013-04-09 02:30:00,38.0,35.8,29.87,NE,45,12.1,13.0,92,0.00,,,0.00,WUHU216HW,2013-04-09 07:30:00,
2013-04-09 02:35:00,37.8,35.6,29.87,NE,45,12.1,12.8,92,0.00,,,0.00,WUHU216HW,2013-04-09 07:35:00,
2013-04-09 02:40:00,37.8,35.6,29.88,NE,45,7.4,12.8,92,0.00,,,0.00,WUHU216HW,2013-04-09 07:40:00,
2013-04-09 02:45:00,38.0,36.1,29.88,NE,45,9.8,12.1,93,0.00,,,0.00,WUHU216HW,2013-04-09 07:45:00,
2013-04-09 02:50:00,38.0,35.8,29.87,NNE,23,7.2,10.7,92,0.00,,,0.00,WUHU216HW,2013-04-09 07:50:00,
2013-04-09 02:55:00,37.8,35.6,29.87,ENE,68,6.3,11.6,92,0.00,,,0.00,WUHU216HW,2013-04-09 07:55:00,
2013-04-09 03:00:00,37.8,35.6,29.87,ENE,68,8.1,11.6,92,0.00,,,0.00,WUHU216HW,2013-04-09 08:00:00,
2013-04-09 03:05:00,37.8,35.9,29.87,NE,45,8.7,9.6,93,0.00,,,0.00,WUHU216HW,2013-04-09 08:05:00,
2013-04-09 03:10:00,37.8,35.9,29.88,NNE,23,7.6,9.6,93,0.00,,,0.00,WUHU216HW,2013-04-09 08:10:00,
2013-04-09 03:15:00,37.8,35.9,29.87,NE,45,7.6,12.3,93,0.00,,,0.00,WUHU216HW,2013-04-09 08:15:00,
2013-04-09 03:20:00,37.8,35.9,29.87,NNE,23,9.8,12.3,93,0.00,,,0.00,WUHU216HW,2013-04-09 08:20:00,
2013-04-09 03:25:00,37.8,35.9,29.87,NE,45,6.0,10.1,93,0.00,,,0.00,WUHU216HW,2013-04-09 08:25:00,
2013-04-09 03:30:00,37.8,35.9,29.87,ENE,68,8.9,10.7,93,0.00,,,0.00,WUHU216HW,2013-04-09 08:30:00,
2013-04-09 03:35:00,37.8,35.9,29.88,ENE,68,6.0,10.7,93,0.00,,,0.00,WUHU216HW,2013-04-09 08:35:00,
2013-04-09 03:40:00,37.8,35.9,29.88,ENE,68,8.5,8.9,93,0.00,,,0.00,WUHU216HW,2013-04-09 08:40:00,
2013-04-09 03:45:00,37.8,35.9,29.88,NE,45,5.6,10.1,93,0.00,,,0.00,WUHU216HW,2013-04-09 08:45:00,
2013-04-09 03:50:00,38.0,36.1,29.87,NE,45,9.6,10.1,93,0.00,,,0.00,WUHU216HW,2013-04-09 08:50:00,
2013-04-09 03:55:00,37.8,35.9,29.87,ENE,68,6.0,11.0,93,0.00,,,0.00,WUHU216HW,2013-04-09 08:55:00,
2013-04-09 04:00:00,37.8,35.9,29.86,ENE,68,9.4,13.9,93,0.00,,,0.00,WUHU216HW,2013-04-09 09:00:00,
2013-04-09 04:05:00,37.8,35.9,29.86,ENE,68,8.7,13.9,93,0.00,,,0.00,WUHU216HW,2013-04-09 09:05:00,
2013-04-09 04:10:00,37.8,35.9,29.86,ENE,68,7.8,13.2,93,0.00,,,0.00,WUHU216HW,2013-04-09 09:10:00,
2013-04-09 04:15:00,37.8,35.9,29.87,ENE,68,6.7,12.1,93,0.00,,,0.00,WUHU216HW,2013-04-09 09:15:00,
2013-04-09 04:20:00,37.8,35.9,29.86,NE,45,7.4,9.8,93,0.00,,,0.00,WUHU216HW,2013-04-09 09:20:00,
2013-04-09 04:25:00,37.8,36.2,29.85,NNE,23,7.4,9.8,94,0.00,,,0.00,WUHU216HW,2013-04-09 09:25:00,
2013-04-09 04:30:00,37.8,36.2,29.85,NE,45,9.2,12.8,94,0.00,,,0.00,WUHU216HW,2013-04-09 09:30:00,
2013-04-09 04:35:00,37.8,36.2,29.86,NE,45,12.1,14.5,94,0.00,,,0.00,WUHU216HW,2013-04-09 09:35:00,
2013-04-09 04:40:00,37.8,36.2,29.86,ENE,68,6.5,14.5,94,0.00,,,0.00,WUHU216HW,2013-04-09 09:40:00,
2013-04-09 04:45:00,37.8,36.2,29.85,East,90,9.2,12.1,94,0.00,,,0.00,WUHU216HW,2013-04-09 09:45:00,
2013-04-09 04:50:00,37.8,36.2,29.84,NE,45,8.7,13.4,94,0.00,,,0.00,WUHU216HW,2013-04-09 09:50:00,
2013-04-09 04:55:00,37.8,36.2,29.84,ENE,68,10.1,13.4,94,0.00,,,0.00,WUHU216HW,2013-04-09 09:55:00,
2013-04-09 05:00:00,37.8,36.2,29.84,NE,45,6.3,13.2,94,0.00,,,0.00,WUHU216HW,2013-04-09 10:00:00,
2013-04-09 05:05:00,37.8,36.2,29.85,ENE,68,11.6,11.6,94,0.00,,,0.00,WUHU216HW,2013-04-09 10:05:00,
2013-04-09 05:10:00,38.0,36.4,29.86,ENE,68,8.3,11.6,94,0.00,,,0.00,WUHU216HW,2013-04-09 10:10:00,
2013-04-09 05:15:00,38.0,36.4,29.87,East,90,5.8,11.6,94,0.00,,,0.00,WUHU216HW,2013-04-09 10:15:00,
2013-04-09 05:20:00,38.0,36.4,29.87,ENE,68,5.6,9.8,94,0.00,,,0.00,WUHU216HW,2013-04-09 10:20:00,
2013-04-09 05:25:00,38.2,36.5,29.87,NE,45,8.5,9.8,94,0.00,,,0.00,WUHU216HW,2013-04-09 10:25:00,
2013-04-09 05:30:00,38.2,36.5,29.86,NE,45,8.7,9.8,94,0.00,,,0.00,WUHU216HW,2013-04-09 10:30:00,
2013-04-09 05:35:00,38.2,36.5,29.84,ENE,68,7.6,11.6,94,0.00,,,0.00,WUHU216HW,2013-04-09 10:35:00,
2013-04-09 05:40:00,38.2,36.5,29.84,NNE,23,8.7,11.6,94,0.00,,,0.00,WUHU216HW,2013-04-09 10:40:00,
2013-04-09 05:45:00,38.2,36.5,29.85,ENE,68,6.9,10.3,94,0.00,,,0.00,WUHU216HW,2013-04-09 10:45:00,
2013-04-09 05:50:00,38.3,36.7,29.86,ENE,68,7.4,10.3,94,0.00,,,0.00,WUHU216HW,2013-04-09 10:50:00,
2013-04-09 05:55:00,38.3,36.7,29.86,ENE,68,7.8,10.1,94,0.00,,,0.00,WUHU216HW,2013-04-09 10:55:00,
2013-04-09 06:00:00,38.3,36.7,29.84,NNE,23,6.5,9.8,94,0.00,,,0.00,WUHU216HW,2013-04-09 11:00:00,
2013-04-09 06:05:00,38.5,36.9,29.83,NE,45,8.9,10.7,94,0.00,,,0.00,WUHU216HW,2013-04-09 11:05:00,
2013-04-09 06:10:00,38.5,36.9,29.84,ESE,113,5.6,11.4,94,0.00,,,0.00,WUHU216HW,2013-04-09 11:10:00,
2013-04-09 06:15:00,38.3,36.7,29.85,NE,45,5.4,11.4,94,0.00,,,0.00,WUHU216HW,2013-04-09 11:15:00,
2013-04-09 06:20:00,38.3,36.7,29.84,North,0,6.3,8.5,94,0.00,,,0.00,WUHU216HW,2013-04-09 11:20:00,
2013-04-09 06:25:00,38.2,36.5,29.84,NE,45,9.2,10.1,94,0.00,,,0.00,WUHU216HW,2013-04-09 11:25:00,
2013-04-09 06:30:00,38.2,36.5,29.84,NE,45,5.4,10.1,94,0.00,,,0.00,WUHU216HW,2013-04-09 11:30:00,
2013-04-09 06:35:00,38.2,36.5,29.83,NE,45,8.7,10.1,94,0.00,,,0.00,WUHU216HW,2013-04-09 11:35:00,
2013-04-09 06:40:00,38.0,36.4,29.83,NE,45,9.4,13.2,94,0.00,,,0.00,WUHU216HW,2013-04-09 11:40:00,
2013-04-09 06:45:00,38.0,36.4,29.83,NNE,23,11.6,13.2,94,0.01,,,0.01,WUHU216HW,2013-04-09 11:45:00,
2013-04-09 06:50:00,38.0,36.4,29.83,NNE,23,9.2,11.9,94,0.01,,,0.01,WUHU216HW,2013-04-09 11:50:00,
2013-04-09 06:55:00,38.0,36.4,29.84,East,90,9.8,11.9,94,0.01,,,0.01,WUHU216HW,2013-04-09 11:55:00,
2013-04-09 07:00:00,38.0,36.4,29.85,East,90,7.4,11.6,94,0.01,,,0.01,WUHU216HW,2013-04-09 12:00:00,
2013-04-09 07:05:00,38.0,36.4,29.87,East,90,4.0,9.8,94,0.02,,,0.02,WUHU216HW,2013-04-09 12:05:00,
2013-04-09 07:10:00,38.2,36.5,29.89,ESE,113,3.4,7.4,94,0.02,,,0.02,WUHU216HW,2013-04-09 12:10:00,
2013-04-09 07:15:00,38.2,36.5,29.88,East,90,5.6,6.7,94,0.03,,,0.03,WUHU216HW,2013-04-09 12:15:00,
2013-04-09 07:20:00,38.2,36.5,29.88,ENE,68,7.8,8.5,94,0.03,,,0.03,WUHU216HW,2013-04-09 12:20:00,
2013-04-09 07:25:00,38.0,36.4,29.87,ENE,68,9.4,10.7,94,0.04,,,0.04,WUHU216HW,2013-04-09 12:25:00,
2013-04-09 07:30:00,38.0,36.4,29.86,NE,45,8.5,11.4,94,0.04,,,0.04,WUHU216HW,2013-04-09 12:30:00,
2013-04-09 07:35:00,38.0,36.4,29.86,NNE,23,6.7,11.4,94,0.05,,,0.05,WUHU216HW,2013-04-09 12:35:00,
2013-04-09 07:40:00,37.8,36.2,29.86,NNE,23,7.8,11.4,94,0.05,,,0.06,WUHU216HW,2013-04-09 12:40:00,
2013-04-09 07:45:00,37.8,36.2,29.86,NE,45,12.1,12.1,94,0.06,,,0.07,WUHU216HW,2013-04-09 12:45:00,
2013-04-09 07:50:00,37.8,36.2,29.83,NE,45,17.2,17.7,94,0.06,,,0.07,WUHU216HW,2013-04-09 12:50:00,
2013-04-09 07:55:00,37.6,36.0,29.80,ENE,68,18.1,18.8,94,0.07,,,0.08,WUHU216HW,2013-04-09 12:55:00,
2013-04-09 08:00:00,37.6,36.0,29.82,NE,45,8.7,18.8,94,0.07,,,0.09,WUHU216HW,2013-04-09 13:00:00,
2013-04-09 08:05:00,37.6,36.0,29.83,NE,45,8.5,18.1,94,0.08,,,0.10,WUHU216HW,2013-04-09 13:05:00,
2013-04-09 08:10:00,37.6,36.0,29.82,NNE,23,13.2,14.5,94,0.09,,,0.11,WUHU216HW,2013-04-09 13:10:00,
2013-04-09 08:15:00,37.6,36.0,29.83,ENE,68,9.8,14.5,94,0.09,,,0.12,WUHU216HW,2013-04-09 13:15:00,
2013-04-09 08:20:00,37.6,36.0,29.84,ENE,68,11.6,13.2,94,0.10,,,0.13,WUHU216HW,2013-04-09 13:20:00,
2013-04-09 08:25:00,37.4,35.8,29.85,NE,45,8.1,12.5,94,0.10,,,0.14,WUHU216HW,2013-04-09 13:25:00,
2013-04-09 08:30:00,37.6,36.0,29.88,NW,315,6.3,11.6,94,0.11,,,0.16,WUHU216HW,2013-04-09 13:30:00,
2013-04-09 08:35:00,37.6,36.0,29.89,NNW,338,4.5,8.5,94,0.12,,,0.17,WUHU216HW,2013-04-09 13:35:00,
2013-04-09 08:40:00,37.4,35.8,29.86,NE,45,8.5,9.6,94,0.13,,,0.19,WUHU216HW,2013-04-09 13:40:00,
2013-04-09 08:45:00,37.3,35.6,29.83,ENE,68,13.2,14.3,94,0.13,,,0.21,WUHU216HW,2013-04-09 13:45:00,
2013-04-09 08:50:00,37.3,35.6,29.86,North,0,6.7,14.3,94,0.15,,,0.22,WUHU216HW,2013-04-09 13:50:00,
2013-04-09 08:55:00,37.3,35.6,29.87,NNE,23,5.1,13.2,94,0.16,,,0.24,WUHU216HW,2013-04-09 13:55:00,
2013-04-09 09:00:00,37.3,35.6,29.85,ENE,68,9.6,10.1,94,0.15,,,0.26,WUHU216HW,2013-04-09 14:00:00,
2013-04-09 09:05:00,37.3,35.6,29.84,East,90,7.2,12.1,94,0.16,,,0.28,WUHU216HW,2013-04-09 14:05:00,
2013-04-09 09:10:00,37.4,35.8,29.84,ENE,68,7.8,12.1,94,0.17,,,0.28,WUHU216HW,2013-04-09 14:10:00,
2013-04-09 09:15:00,37.4,35.8,29.83,ENE,68,8.9,11.4,94,0.18,,,0.30,WUHU216HW,2013-04-09 14:15:00,
2013-04-09 09:20:00,37.8,36.2,29.81,ENE,68,10.5,11.6,94,0.17,,,0.32,WUHU216HW,2013-04-09 14:20:00,
2013-04-09 09:25:00,38.0,36.4,29.81,NE,45,7.8,15.0,94,0.18,,,0.34,WUHU216HW,2013-04-09 14:25:00,
2013-04-09 09:30:00,38.2,36.5,29.81,ENE,68,10.5,15.0,94,0.19,,,0.35,WUHU216HW,2013-04-09 14:30:00,
2013-04-09 09:35:00,38.5,36.6,29.81,ENE,68,7.8,13.6,93,0.19,,,0.37,WUHU216HW,2013-04-09 14:35:00,
2013-04-09 09:40:00,38.5,36.6,29.81,NE,45,10.1,13.6,93,0.18,,,0.39,WUHU216HW,2013-04-09 14:40:00,
2013-04-09 09:45:00,38.7,36.8,29.80,ENE,68,13.2,13.6,93,0.18,,,0.40,WUHU216HW,2013-04-09 14:45:00,
2013-04-09 09:50:00,38.5,36.4,29.79,NE,45,13.6,18.6,92,0.18,,,0.42,WUHU216HW,2013-04-09 14:50:00,
2013-04-09 09:55:00,38.5,36.4,29.79,ENE,68,10.7,18.6,92,0.18,,,0.43,WUHU216HW,2013-04-09 14:55:00,
2013-04-09 10:00:00,38.7,36.5,29.78,ESE,113,16.3,18.8,92,0.17,,,0.44,WUHU216HW,2013-04-09 15:00:00,
2013-04-09 10:05:00,38.9,36.7,29.78,ENE,68,12.8,18.8,92,0.17,,,0.45,WUHU216HW,2013-04-09 15:05:00,
2013-04-09 10:10:00,38.9,36.7,29.79,East,90,8.9,16.3,92,0.16,,,0.46,WUHU216HW,2013-04-09 15:10:00,
2013-04-09 10:15:00,38.9,36.7,29.78,NE,45,9.6,18.6,92,0.16,,,0.47,WUHU216HW,2013-04-09 15:15:00,
2013-04-09 10:20:00,38.9,36.7,29.79,ENE,68,8.5,18.6,92,0.13,,,0.47,WUHU216HW,2013-04-09 15:20:00,
2013-04-09 10:25:00,39.1,37.2,29.79,NE,45,8.9,12.1,93,0.12,,,0.47,WUHU216HW,2013-04-09 15:25:00,
2013-04-09 10:30:00,38.9,36.7,29.79,ENE,68,11.4,13.4,92,0.11,,,0.47,WUHU216HW,2013-04-09 15:30:00,
2013-04-09 10:35:00,38.9,36.7,29.79,ENE,68,7.6,13.4,92,0.10,,,0.47,WUHU216HW,2013-04-09 15:35:00,
2013-04-09 10:40:00,39.1,37.2,29.80,NE,45,5.6,13.2,93,0.07,,,0.47,WUHU216HW,2013-04-09 15:40:00,
2013-04-09 10:45:00,39.2,37.4,29.80,ENE,68,7.4,8.5,93,0.07,,,0.48,WUHU216HW,2013-04-09 15:45:00,
2013-04-09 10:50:00,39.2,37.4,29.80,NE,45,6.9,10.7,93,0.06,,,0.48,WUHU216HW,2013-04-09 15:50:00,
2013-04-09 10:55:00,39.2,37.4,29.81,ENE,68,4.0,10.7,93,0.06,,,0.49,WUHU216HW,2013-04-09 15:55:00,
2013-04-09 11:00:00,39.2,37.4,29.79,East,90,8.1,12.3,93,0.04,,,0.49,WUHU216HW,2013-04-09 16:00:00,
2013-04-09 11:05:00,40.0,38.1,29.77,ENE,68,8.5,12.8,93,0.04,,,0.50,WUHU216HW,2013-04-09 16:05:00,
2013-04-09 11:10:00,40.1,38.3,29.78,NNE,23,11.4,12.8,93,0.04,,,0.50,WUHU216HW,2013-04-09 16:10:00,
2013-04-09 11:15:00,39.8,37.6,29.77,NE,45,14.1,16.3,92,0.03,,,0.50,WUHU216HW,2013-04-09 16:15:00,
2013-04-09 11:20:00,39.6,37.7,29.77,ENE,68,9.4,16.3,93,0.03,,,0.50,WUHU216HW,2013-04-09 16:20:00,
2013-04-09 11:25:00,39.6,37.7,29.77,ESE,113,5.4,16.1,93,0.03,,,0.50,WUHU216HW,2013-04-09 16:25:00,
2013-04-09 11:30:00,39.6,37.7,29.77,ENE,68,8.5,14.3,93,0.03,,,0.50,WUHU216HW,2013-04-09 16:30:00,
2013-04-09 11:35:00,39.6,37.7,29.78,NE,45,7.4,12.1,93,0.03,,,0.50,WUHU216HW,2013-04-09 16:35:00,
2013-04-09 11:40:00,39.6,37.7,29.77,ENE,68,9.6,12.1,93,0.02,,,0.50,WUHU216HW,2013-04-09 16:40:00,
2013-04-09 11:45:00,39.8,37.9,29.76,ENE,68,8.5,11.4,93,0.02,,,0.50,WUHU216HW,2013-04-09 16:45:00,
2013-04-09 11:50:00,40.0,38.1,29.76,ENE,68,14.3,14.3,93,0.02,,,0.50,WUHU216HW,2013-04-09 16:50:00,
2013-04-09 11:55:00,39.8,37.9,29.77,ENE,68,11.4,14.3,93,0.01,,,0.50,WUHU216HW,2013-04-09 16:55:00,
2013-04-09 12:00:00,39.8,37.9,29.76,NE,45,5.1,14.3,93,0.01,,,0.50,WUHU216HW,2013-04-09 17:00:00,
2013-04-09 12:05:00,39.8,37.9,29.76,SE,135,7.8,12.8,93,0.00,,,0.50,WUHU216HW,2013-04-09 17:05:00,
2013-04-09 12:10:00,40.0,38.1,29.76,NE,45,8.5,12.8,93,0.00,,,0.50,WUHU216HW,2013-04-09 17:10:00,
2013-04-09 12:15:00,40.0,38.1,29.75,ENE,68,9.4,12.1,93,0.00,,,0.50,WUHU216HW,2013-04-09 17:15:00,
2013-04-09 12:20:00,40.0,38.1,29.75,ENE,68,5.6,12.1,93,0.00,,,0.50,WUHU216HW,2013-04-09 17:20:00,
2013-04-09 12:25:00,40.0,38.1,29.75,ENE,68,7.6,11.2,93,0.00,,,0.50,WUHU216HW,2013-04-09 17:25:00,
2013-04-09 12:30:00,40.0,38.1,29.75,NE,45,11.6,12.8,93,0.01,,,0.51,WUHU216HW,2013-04-09 17:30:00,
2013-04-09 12:35:00,40.1,38.5,29.75,NNE,23,7.4,13.9,94,0.01,,,0.51,WUHU216HW,2013-04-09 17:35:00,
2013-04-09 12:40:00,40.1,38.3,29.76,NE,45,7.6,13.9,93,0.01,,,0.51,WUHU216HW,2013-04-09 17:40:00,
2013-04-09 12:45:00,40.3,38.4,29.79,NNE,23,2.2,9.8,93,0.01,,,0.51,WUHU216HW,2013-04-09 17:45:00,
2013-04-09 12:50:00,40.3,38.7,29.83,NW,315,13.4,13.4,94,0.01,,,0.51,WUHU216HW,2013-04-09 17:50:00,
2013-04-09 12:55:00,40.3,38.7,29.89,NW,315,8.5,24.4,94,0.02,,,0.52,WUHU216HW,2013-04-09 17:55:00,
2013-04-09 13:00:00,39.8,37.9,29.85,NNW,338,9.4,24.4,93,0.02,,,0.52,WUHU216HW,2013-04-09 18:00:00,
2013-04-09 13:05:00,39.2,37.4,29.82,North,0,12.3,18.6,93,0.02,,,0.52,WUHU216HW,2013-04-09 18:05:00,
2013-04-09 13:10:00,38.5,36.4,29.80,North,0,14.3,18.6,92,0.03,,,0.53,WUHU216HW,2013-04-09 18:10:00,
2013-04-09 13:15:00,38.3,36.2,29.81,NE,45,11.4,16.8,92,0.03,,,0.53,WUHU216HW,2013-04-09 18:15:00,
2013-04-09 13:20:00,38.2,36.0,29.83,NW,315,13.0,17.7,92,0.04,,,0.54,WUHU216HW,2013-04-09 18:20:00,
2013-04-09 13:25:00,38.2,36.3,29.81,North,0,11.9,17.7,93,0.03,,,0.54,WUHU216HW,2013-04-09 18:25:00,
2013-04-09 13:30:00,38.2,36.0,29.79,NNE,23,14.8,14.8,92,0.03,,,0.54,WUHU216HW,2013-04-09 18:30:00,
2013-04-09 13:35:00,38.2,36.0,29.79,NNE,23,15.7,17.0,92,0.04,,,0.55,WUHU216HW,2013-04-09 18:35:00,
2013-04-09 13:40:00,38.2,36.0,29.78,NE,45,18.6,18.6,92,0.04,,,0.55,WUHU216HW,2013-04-09 18:40:00,
2013-04-09 13:45:00,38.3,36.2,29.79,NNE,23,9.4,19.2,92,0.05,,,0.56,WUHU216HW,2013-04-09 18:45:00,
2013-04-09 13:50:00,38.5,36.4,29.81,North,0,10.7,19.2,92,0.05,,,0.56,WUHU216HW,2013-04-09 18:50:00,
2013-04-09 13:55:00,38.7,36.5,29.81,North,0,8.5,12.8,92,0.05,,,0.57,WUHU216HW,2013-04-09 18:55:00,
2013-04-09 14:00:00,38.9,36.5,29.81,North,0,14.3,16.3,91,0.05,,,0.57,WUHU216HW,2013-04-09 19:00:00,
2013-04-09 14:05:00,39.1,36.9,29.80,NE,45,9.2,16.3,92,0.06,,,0.58,WUHU216HW,2013-04-09 19:05:00,
2013-04-09 14:10:00,39.2,36.8,29.79,NNE,23,18.1,19.7,91,0.05,,,0.58,WUHU216HW,2013-04-09 19:10:00,
2013-04-09 14:15:00,39.6,36.9,29.79,NNE,23,16.8,19.7,90,0.06,,,0.59,WUHU216HW,2013-04-09 19:15:00,
2013-04-09 14:20:00,40.0,37.5,29.79,SSE,158,9.8,17.0,91,0.05,,,0.59,WUHU216HW,2013-04-09 19:20:00,
2013-04-09 14:25:00,40.0,37.3,29.78,NNE,23,10.5,21.5,90,0.05,,,0.59,WUHU216HW,2013-04-09 19:25:00,
2013-04-09 14:30:00,40.1,37.2,29.79,NNE,23,19.5,22.8,89,0.06,,,0.60,WUHU216HW,2013-04-09 19:30:00,
2013-04-09 14:35:00,39.8,37.1,29.79,NNE,23,22.8,22.8,90,0.05,,,0.60,WUHU216HW,2013-04-09 19:35:00,
2013-04-09 14:40:00,40.0,37.3,29.78,NNE,23,16.8,22.8,90,0.05,,,0.61,WUHU216HW,2013-04-09 19:40:00,
2013-04-09 14:45:00,39.6,37.2,29.79,NNE,23,12.3,22.8,91,0.05,,,0.61,WUHU216HW,2013-04-09 19:45:00,
2013-04-09 14:50:00,39.2,37.1,29.80,NNE,23,20.8,20.8,92,0.06,,,0.62,WUHU216HW,2013-04-09 19:50:00,
2013-04-09 14:55:00,39.1,36.9,29.81,North,0,12.1,20.8,92,0.05,,,0.62,WUHU216HW,2013-04-09 19:55:00,
2013-04-09 15:00:00,39.1,36.6,29.82,NNE,23,14.3,20.8,91,0.06,,,0.63,WUHU216HW,2013-04-09 20:00:00,
2013-04-09 15:05:00,38.9,36.7,29.79,North,0,15.7,16.8,92,0.05,,,0.63,WUHU216HW,2013-04-09 20:05:00,
2013-04-09 15:10:00,38.9,36.5,29.81,North,0,8.5,16.8,91,0.06,,,0.64,WUHU216HW,2013-04-09 20:10:00,
2013-04-09 15:15:00,38.9,36.7,29.80,NE,45,10.1,18.1,92,0.05,,,0.64,WUHU216HW,2013-04-09 20:15:00,
2013-04-09 15:20:00,38.9,37.0,29.80,North,0,12.8,20.8,93,0.06,,,0.65,WUHU216HW,2013-04-09 20:20:00,
2013-04-09 15:25:00,38.9,36.7,29.81,NNE,23,9.8,20.8,92,0.05,,,0.65,WUHU216HW,2013-04-09 20:25:00,
2013-04-09 15:30:00,38.9,36.7,29.81,ENE,68,9.2,20.4,92,0.06,,,0.66,WUHU216HW,2013-04-09 20:30:00,
2013-04-09 15:35:00,38.7,36.5,29.82,NNE,23,12.8,21.3,92,0.06,,,0.66,WUHU216HW,2013-04-09 20:35:00,
2013-04-09 15:40:00,38.7,36.5,29.82,NNE,23,15.2,21.3,92,0.06,,,0.67,WUHU216HW,2013-04-09 20:40:00,
2013-04-09 15:45:00,38.7,36.5,29.81,NE,45,15.0,20.8,92,0.05,,,0.67,WUHU216HW,2013-04-09 20:45:00,
2013-04-09 15:50:00,38.5,36.4,29.81,NNE,23,16.6,20.8,92,0.06,,,0.68,WUHU216HW,2013-04-09 20:50:00,
2013-04-09 15:55:00,38.5,36.4,29.81,NE,45,16.3,18.1,92,0.07,,,0.69,WUHU216HW,2013-04-09 20:55:00,
2013-04-09 16:00:00,38.5,36.4,29.81,NNE,23,11.4,19.2,92,0.06,,,0.69,WUHU216HW,2013-04-09 21:00:00,
2013-04-09 16:05:00,38.3,36.2,29.82,NNE,23,17.2,23.7,92,0.07,,,0.70,WUHU216HW,2013-04-09 21:05:00,
2013-04-09 16:10:00,38.3,36.2,29.82,NE,45,11.9,23.7,92,0.06,,,0.70,WUHU216HW,2013-04-09 21:10:00,
2013-04-09 16:15:00,38.3,36.2,29.83,NNE,23,11.6,20.4,92,0.07,,,0.71,WUHU216HW,2013-04-09 21:15:00,
2013-04-09 16:20:00,38.2,36.0,29.83,North,0,11.6,20.6,92,0.06,,,0.71,WUHU216HW,2013-04-09 21:20:00,
2013-04-09 16:25:00,38.3,36.2,29.83,NNE,23,6.3,20.6,92,0.06,,,0.72,WUHU216HW,2013-04-09 21:25:00,
2013-04-09 16:30:00,38.2,36.0,29.83,NE,45,12.5,16.1,92,0.06,,,0.72,WUHU216HW,2013-04-09 21:30:00,
2013-04-09 16:35:00,38.2,36.0,29.83,NNE,23,13.4,16.8,92,0.07,,,0.73,WUHU216HW,2013-04-09 21:35:00,
2013-04-09 16:40:00,38.3,36.2,29.83,NNE,23,7.6,16.8,92,0.06,,,0.73,WUHU216HW,2013-04-09 21:40:00,
2013-04-09 16:45:00,38.2,36.0,29.83,NNE,23,9.8,17.9,92,0.06,,,0.74,WUHU216HW,2013-04-09 21:45:00,
2013-04-09 16:50:00,38.2,36.0,29.83,NNE,23,9.8,17.9,92,0.07,,,0.75,WUHU216HW,2013-04-09 21:50:00,
2013-04-09 16:55:00,38.2,36.0,29.84,NNE,23,13.4,19.5,92,0.06,,,0.75,WUHU216HW,2013-04-09 21:55:00,
2013-04-09 17:00:00,38.2,36.0,29.84,NE,45,9.6,19.5,92,0.06,,,0.76,WUHU216HW,2013-04-09 22:00:00,
2013-04-09 17:05:00,38.2,36.0,29.84,NNE,23,15.7,15.7,92,0.06,,,0.76,WUHU216HW,2013-04-09 22:05:00,
2013-04-09 17:10:00,38.2,36.0,29.84,North,0,15.0,20.1,92,0.07,,,0.77,WUHU216HW,2013-04-09 22:10:00,
2013-04-09 17:15:00,38.2,36.0,29.84,North,0,11.4,20.1,92,0.07,,,0.78,WUHU216HW,2013-04-09 22:15:00,
2013-04-09 17:20:00,38.2,36.0,29.84,NNE,23,12.1,16.6,92,0.06,,,0.78,WUHU216HW,2013-04-09 22:20:00,
2013-04-09 17:25:00,38.2,36.0,29.85,NNE,23,11.9,17.9,92,0.07,,,0.79,WUHU216HW,2013-04-09 22:25:00,
2013-04-09 17:30:00,38.0,35.8,29.84,North,0,14.8,18.6,92,0.07,,,0.79,WUHU216HW,2013-04-09 22:30:00,
2013-04-09 17:35:00,38.0,35.8,29.85,NNE,23,17.7,18.6,92,0.07,,,0.80,WUHU216HW,2013-04-09 22:35:00,
2013-04-09 17:40:00,38.0,35.8,29.85,NNE,23,14.3,17.7,92,0.07,,,0.81,WUHU216HW,2013-04-09 22:40:00,
2013-04-09 17:45:00,37.8,35.6,29.86,NNE,23,11.6,19.2,92,0.07,,,0.81,WUHU216HW,2013-04-09 22:45:00,
2013-04-09 17:50:00,37.8,35.6,29.86,NNE,23,13.9,19.2,92,0.07,,,0.82,WUHU216HW,2013-04-09 22:50:00,
2013-04-09 17:55:00,37.8,35.9,29.85,NNE,23,11.9,17.2,93,0.07,,,0.82,WUHU216HW,2013-04-09 22:55:00,
2013-04-09 18:00:00,37.6,35.7,29.85,NNE,23,10.7,18.6,93,0.07,,,0.84,WUHU216HW,2013-04-09 23:00:00,
2013-04-09 18:05:00,37.8,35.9,29.85,NNE,23,14.1,18.6,93,0.07,,,0.84,WUHU216HW,2013-04-09 23:05:00,
2013-04-09 18:10:00,37.8,35.9,29.86,NNE,23,9.2,17.4,93,0.07,,,0.84,WUHU216HW,2013-04-09 23:10:00,
2013-04-09 18:15:00,37.8,35.9,29.86,NNE,23,14.1,17.9,93,0.07,,,0.85,WUHU216HW,2013-04-09 23:15:00,
2013-04-09 18:20:00,37.8,35.9,29.86,NNE,23,10.5,17.9,93,0.07,,,0.86,WUHU216HW,2013-04-09 23:20:00,
2013-04-09 18:25:00,37.6,35.7,29.86,NE,45,18.6,20.1,93,0.07,,,0.86,WUHU216HW,2013-04-09 23:25:00,
2013-04-09 18:30:00,37.6,35.7,29.87,NNE,23,9.2,20.1,93,0.07,,,0.87,WUHU216HW,2013-04-09 23:30:00,
2013-04-09 18:35:00,37.6,35.7,29.87,NNE,23,13.0,18.6,93,0.07,,,0.87,WUHU216HW,2013-04-09 23:35:00,
2013-04-09 18:40:00,37.6,35.7,29.87,NNE,23,13.6,15.7,93,0.07,,,0.88,WUHU216HW,2013-04-09 23:40:00,
2013-04-09 18:45:00,37.6,35.7,29.86,NE,45,12.8,16.3,93,0.07,,,0.88,WUHU216HW,2013-04-09 23:45:00,
2013-04-09 18:50:00,37.8,35.9,29.86,NNE,23,19.2,19.2,93,0.07,,,0.89,WUHU216HW,2013-04-09 23:50:00,
2013-04-09 18:55:00,37.8,35.9,29.86,NNE,23,12.8,19.2,93,0.08,,,0.91,WUHU216HW,2013-04-09 23:55:00,
2013-04-09 19:00:00,37.8,35.9,29.86,NE,45,13.6,16.1,93,0.07,,,0.91,WUHU216HW,2013-04-10 00:00:00,
2013-04-09 19:05:00,37.8,35.9,29.86,NE,45,15.0,16.3,93,0.07,,,0.91,WUHU216HW,2013-04-10 00:05:00,
2013-04-09 19:10:00,37.8,35.9,29.86,NNE,23,14.8,17.9,93,0.07,,,0.91,WUHU216HW,2013-04-10 00:10:00,
2013-04-09 19:15:00,37.8,35.9,29.86,North,0,15.4,17.9,93,0.07,,,0.93,WUHU216HW,2013-04-10 00:15:00,
2013-04-09 19:20:00,37.8,35.9,29.86,NNE,23,11.4,18.6,93,0.06,,,0.93,WUHU216HW,2013-04-10 00:20:00,
2013-04-09 19:25:00,37.8,35.9,29.87,NNE,23,10.5,18.6,93,0.07,,,0.93,WUHU216HW,2013-04-10 00:25:00,
2013-04-09 19:30:00,37.8,35.9,29.87,NE,45,12.8,17.9,93,0.07,,,0.95,WUHU216HW,2013-04-10 00:30:00,
2013-04-09 19:35:00,38.0,36.1,29.88,NNE,23,10.3,17.9,93,0.07,,,0.95,WUHU216HW,2013-04-10 00:35:00,
2013-04-09 19:40:00,38.0,36.1,29.88,NNE,23,11.2,15.7,93,0.07,,,0.96,WUHU216HW,2013-04-10 00:40:00,
2013-04-09 19:45:00,38.0,35.8,29.88,NNE,23,15.2,16.3,92,0.06,,,0.96,WUHU216HW,2013-04-10 00:45:00,
2013-04-09 19:50:00,38.0,36.1,29.89,NE,45,11.2,17.7,93,0.07,,,0.97,WUHU216HW,2013-04-10 00:50:00,
2013-04-09 19:55:00,38.0,36.1,29.89,NE,45,11.0,17.7,93,0.06,,,0.97,WUHU216HW,2013-04-10 00:55:00,
2013-04-09 20:00:00,38.0,36.1,29.89,NNE,23,10.3,16.3,93,0.06,,,0.98,WUHU216HW,2013-04-10 01:00:00,
2013-04-09 20:05:00,38.0,36.1,29.90,NNE,23,9.2,14.5,93,0.06,,,0.98,WUHU216HW,2013-04-10 01:05:00,
2013-04-09 20:10:00,37.8,35.9,29.89,NNE,23,14.3,14.8,93,0.06,,,0.98,WUHU216HW,2013-04-10 01:10:00,
2013-04-09 20:15:00,37.8,35.6,29.89,NE,45,17.9,17.9,92,0.06,,,0.98,WUHU216HW,2013-04-10 01:15:00,
2013-04-09 20:20:00,38.0,35.8,29.89,ENE,68,10.1,17.9,92,0.06,,,1.00,WUHU216HW,2013-04-10 01:20:00,
2013-04-09 20:25:00,37.8,35.6,29.89,NE,45,11.0,17.9,92,0.06,,,1.00,WUHU216HW,2013-04-10 01:25:00,
2013-04-09 20:30:00,37.8,35.9,29.89,NNE,23,8.9,15.9,93,0.06,,,1.00,WUHU216HW,2013-04-10 01:30:00,
2013-04-09 20:35:00,37.8,35.9,29.88,NNE,23,13.4,17.2,93,0.06,,,1.00,WUHU216HW,2013-04-10 01:35:00,
2013-04-09 20:40:00,37.6,35.7,29.89,NE,45,11.4,19.2,93,0.06,,,1.02,WUHU216HW,2013-04-10 01:40:00,
2013-04-09 20:45:00,37.6,35.5,29.89,NNE,23,18.1,20.8,92,0.05,,,1.02,WUHU216HW,2013-04-10 01:45:00,
2013-04-09 20:50:00,37.8,35.6,29.90,ENE,68,13.9,20.8,92,0.06,,,1.03,WUHU216HW,2013-04-10 01:50:00,
2013-04-09 20:55:00,37.6,35.5,29.89,NE,45,9.8,19.2,92,0.06,,,1.03,WUHU216HW,2013-04-10 01:55:00,
2013-04-09 21:00:00,37.4,35.3,29.89,North,0,11.2,16.3,92,0.05,,,1.03,WUHU216HW,2013-04-10 02:00:00,
2013-04-09 21:05:00,37.3,35.1,29.89,NNE,23,10.7,23.0,92,0.05,,,1.04,WUHU216HW,2013-04-10 02:05:00,
2013-04-09 21:10:00,37.3,35.1,29.89,East,90,10.5,23.0,92,0.05,,,1.04,WUHU216HW,2013-04-10 02:10:00,
2013-04-09 21:15:00,37.1,34.9,29.88,NE,45,13.4,17.2,92,0.06,,,1.05,WUHU216HW,2013-04-10 02:15:00,
2013-04-09 21:20:00,37.1,34.9,29.88,NNE,23,10.5,15.9,92,0.05,,,1.05,WUHU216HW,2013-04-10 02:20:00,
2013-04-09 21:25:00,37.1,34.9,29.89,NE,45,9.6,17.9,92,0.04,,,1.05,WUHU216HW,2013-04-10 02:25:00,
2013-04-09 21:30:00,37.3,34.8,29.88,NE,45,13.4,19.2,91,0.05,,,1.06,WUHU216HW,2013-04-10 02:30:00,
2013-04-09 21:35:00,37.3,34.6,29.89,ENE,68,15.7,21.9,90,0.05,,,1.06,WUHU216HW,2013-04-10 02:35:00,
2013-04-09 21:40:00,37.3,34.3,29.90,NE,45,13.9,21.9,89,0.04,,,1.06,WUHU216HW,2013-04-10 02:40:00,
2013-04-09 21:45:00,37.1,34.1,29.90,NE,45,13.0,20.8,89,0.05,,,1.07,WUHU216HW,2013-04-10 02:45:00,
2013-04-09 21:50:00,37.1,34.1,29.89,NE,45,12.8,19.5,89,0.04,,,1.07,WUHU216HW,2013-04-10 02:50:00,
2013-04-09 21:55:00,37.1,34.1,29.88,NE,45,16.1,19.5,89,0.04,,,1.07,WUHU216HW,2013-04-10 02:55:00,
2013-04-09 22:00:00,36.9,34.2,29.88,NNE,23,14.5,19.9,90,0.04,,,1.08,WUHU216HW,2013-04-10 03:00:00,
2013-04-09 22:05:00,36.9,34.2,29.88,ENE,68,18.3,19.9,90,0.04,,,1.08,WUHU216HW,2013-04-10 03:05:00,
2013-04-09 22:10:00,36.9,33.9,29.88,NE,45,15.4,20.6,89,0.04,,,1.08,WUHU216HW,2013-04-10 03:10:00,
2013-04-09 22:15:00,36.9,33.9,29.88,NE,45,11.2,25.9,89,0.03,,,1.08,WUHU216HW,2013-04-10 03:15:00,
2013-04-09 22:20:00,36.7,33.8,29.88,NNE,23,8.5,25.9,89,0.03,,,1.08,WUHU216HW,2013-04-10 03:20:00,
2013-04-09 22:25:00,36.7,33.8,29.88,NNE,23,10.7,24.2,89,0.03,,,1.09,WUHU216HW,2013-04-10 03:25:00,
2013-04-09 22:30:00,36.5,33.6,29.88,ENE,68,14.3,21.3,89,0.03,,,1.09,WUHU216HW,2013-04-10 03:30:00,
2013-04-09 22:35:00,36.4,33.4,29.87,NE,45,14.1,22.1,89,0.03,,,1.09,WUHU216HW,2013-04-10 03:35:00,
2013-04-09 22:40:00,36.4,33.4,29.87,ENE,68,15.0,22.1,89,0.02,,,1.09,WUHU216HW,2013-04-10 03:40:00,
2013-04-09 22:45:00,36.4,33.4,29.87,NE,45,16.3,19.7,89,0.02,,,1.09,WUHU216HW,2013-04-10 03:45:00,
2013-04-09 22:50:00,36.4,33.4,29.87,NNE,23,13.4,18.6,89,0.03,,,1.10,WUHU216HW,2013-04-10 03:50:00,
2013-04-09 22:55:00,36.4,33.4,29.87,NNE,23,13.4,19.0,89,0.03,,,1.10,WUHU216HW,2013-04-10 03:55:00,
2013-04-09 23:00:00,36.4,33.4,29.87,ENE,68,12.5,23.3,89,0.02,,,1.10,WUHU216HW,2013-04-10 04:00:00,
2013-04-09 23:05:00,36.4,33.4,29.86,NE,45,15.7,23.3,89,0.02,,,1.10,WUHU216HW,2013-04-10 04:05:00,
2013-04-09 23:10:00,36.4,33.4,29.86,NNE,23,13.4,20.8,89,0.02,,,1.10,WUHU216HW,2013-04-10 04:10:00,
2013-04-09 23:15:00,36.4,33.7,29.86,NE,45,12.3,20.8,90,0.02,,,1.10,WUHU216HW,2013-04-10 04:15:00,
2013-04-09 23:20:00,36.2,33.5,29.86,East,90,16.1,20.6,90,0.02,,,1.11,WUHU216HW,2013-04-10 04:20:00,
2013-04-09 23:25:00,36.2,33.5,29.86,NNE,23,11.4,21.5,90,0.02,,,1.11,WUHU216HW,2013-04-10 04:25:00,
2013-04-09 23:30:00,36.2,33.5,29.86,ENE,68,14.5,21.5,90,0.02,,,1.11,WUHU216HW,2013-04-10 04:30:00,
2013-04-09 23:35:00,36.2,33.5,29.86,NNE,23,14.1,20.6,90,0.02,,,1.11,WUHU216HW,2013-04-10 04:35:00,
2013-04-09 23:40:00,36.0,33.6,29.87,NNE,23,9.2,20.6,91,0.02,,,1.11,WUHU216HW,2013-04-10 04:40:00,
2013-04-09 23:45:00,36.0,33.3,29.86,NNE,23,17.9,18.6,90,0.01,,,1.11,WUHU216HW,2013-04-10 04:45:00,
2013-04-09 23:50:00,36.0,33.6,29.87,ENE,68,11.9,19.0,91,0.01,,,1.11,WUHU216HW,2013-04-10 04:50:00,
2013-04-09 23:55:00,36.0,33.6,29.87,NE,45,8.1,21.7,91,0.01,,,1.11,WUHU216HW,2013-04-10 04:55:00,